Ide Min — PC8366 — position and weather

sailwx.info

Track history (hours):
 
Tides and Currents Weather Stations Pressure Air Temp Water Temp Dewpoint Dewpoint Depression Visibility Wind Speed Wind Dir Waves Ship Positions

Ide Min (Netherlands)

Ship's website: http://www.idemin.nl/english/english.html

Last reported at 2015-Jun-29 19:17 UTC. Time now 2015-Jun-29 23:14 UTC.
Position N 54°51' E 010°31'.

Length 40 m; draft 2.4 m.

MMSI: 244537000.

Date/timePositionNaut miles runAvg speedWind from/ knotsBaromVisibWave heightAir tempDewpointWater temp
2015-Jun-29 19:17N 54°51' E 010°31'0 0.0
2015-Jun-29 18:21N 54°51' E 010°31'1 0.3
2015-Jun-29 16:32N 54°51' E 010°32'5 4.1
2015-Jun-29 15:20N 54°47' E 010°28'5 6.8
2015-Jun-29 14:33N 54°42' E 010°22'3 3.3
2015-Jun-29 13:33N 54°40' E 010°19'1 0.9
2015-Jun-29 12:33N 54°39' E 010°18'2 2.5
2015-Jun-29 11:33N 54°37' E 010°16'3 3.0
2015-Jun-29 10:33N 54°34' E 010°14'4 4.4
2015-Jun-29 09:33N 54°30' E 010°13'5 4.7
2015-Jun-29 08:33N 54°25' E 010°12'3 3.0
2015-Jun-29 07:33N 54°22' E 010°11'2 2.2
2015-Jun-29 06:33N 54°20' E 010°10'1 0.9
2015-Jun-29 05:33N 54°19' E 010°09'0 0.0
2015-Jun-29 04:33N 54°19' E 010°09'0 0.0
2015-Jun-29 03:33N 54°19' E 010°09'0 0.0
2015-Jun-29 02:33N 54°19' E 010°09'0 0.0
2015-Jun-29 01:33N 54°19' E 010°09'0 0.0
2015-Jun-29 00:30N 54°19' E 010°09'0 0.0
2015-Jun-28 23:33N 54°19' E 010°09'0 0.0
2015-Jun-28 22:33N 54°19' E 010°09'1 0.6
2015-Jun-28 21:33N 54°20' E 010°09'1 1.1
2015-Jun-28 20:33N 54°21' E 010°10'2 1.7
2015-Jun-28 19:33N 54°22' E 010°11'1 0.2
2015-Jun-28 14:33N 54°23' E 010°11'2 2.2
2015-Jun-28 13:33N 54°21' E 010°10'2 2.0
2015-Jun-28 12:33N 54°19' E 010°09'2 2.1
2015-Jun-28 11:33N 54°21' E 010°10'2 1.9
2015-Jun-28 10:33N 54°23' E 010°11'4 3.8
2015-Jun-28 09:31N 54°19' E 010°09'0 0.0
2015-Jun-28 08:28N 54°19' E 010°09'0 0.0
2015-Jun-28 07:31N 54°19' E 010°09'0 0.0
2015-Jun-28 06:31N 54°19' E 010°09'0 0.0
2015-Jun-28 05:31N 54°19' E 010°09'0 0.0
2015-Jun-28 04:31N 54°19' E 010°09'0 0.0
2015-Jun-28 03:31N 54°19' E 010°09'0 0.0
2015-Jun-28 02:31N 54°19' E 010°09'0 0.0
2015-Jun-28 01:31N 54°19' E 010°09'0 0.0
2015-Jun-28 00:31N 54°19' E 010°09'0 0.0
2015-Jun-27 23:31N 54°19' E 010°09'0 0.0
2015-Jun-27 22:31N 54°19' E 010°09'0 0.0
2015-Jun-27 21:31N 54°19' E 010°09'0 0.0
2015-Jun-27 20:31N 54°19' E 010°09'0 0.0
2015-Jun-27 19:34N 54°19' E 010°09'0 0.5
2015-Jun-27 18:34N 54°20' E 010°09'3 3.0
2015-Jun-27 17:34N 54°22' E 010°10'3 3.3
2015-Jun-27 16:34N 54°19' E 010°09'0 0.1
2015-Jun-27 15:34N 54°19' E 010°09'0 0.0
2015-Jun-27 14:34N 54°19' E 010°09'1 0.5
2015-Jun-27 13:33N 54°20' E 010°09'5 5.1
2015-Jun-27 12:33N 54°24' E 010°12'3 2.6
2015-Jun-27 11:33N 54°27' E 010°14'3 2.6
2015-Jun-27 10:33N 54°24' E 010°13'4 3.5
2015-Jun-27 09:33N 54°21' E 010°10'1 0.9
2015-Jun-27 08:33N 54°20' E 010°10'1 1.4
2015-Jun-27 07:33N 54°19' E 010°09'0 0.0
2015-Jun-27 06:33N 54°19' E 010°09'0 0.0
2015-Jun-27 05:33N 54°19' E 010°09'0 0.0
2015-Jun-27 04:33N 54°19' E 010°09'0 0.0
2015-Jun-27 03:33N 54°19' E 010°09'0 0.0
2015-Jun-27 02:33N 54°19' E 010°09'0 0.0
2015-Jun-27 01:33N 54°19' E 010°09'0 0.0
2015-Jun-27 00:33N 54°19' E 010°09'0 0.0
2015-Jun-26 23:33N 54°19' E 010°09'0 0.0
2015-Jun-26 22:33N 54°19' E 010°09'0 0.0
2015-Jun-26 21:30N 54°19' E 010°09'0 0.0
2015-Jun-26 20:33N 54°19' E 010°09'0 0.0
2015-Jun-26 19:33N 54°19' E 010°09'1 1.4
2015-Jun-26 18:34N 54°21' E 010°10'1 1.0
2015-Jun-26 17:28N 54°22' E 010°09'2 2.2
2015-Jun-26 16:25N 54°19' E 010°09'0 0.0
2015-Jun-26 15:31N 54°19' E 010°09'0 0.0
2015-Jun-26 14:33N 54°19' E 010°09'1 1.3
2015-Jun-26 13:33N 54°20' E 010°10'1 0.9
2015-Jun-26 12:33N 54°21' E 010°10'2 2.3
2015-Jun-26 11:33N 54°23' E 010°12'3 2.7
2015-Jun-26 10:33N 54°26' E 010°12'2 1.6
2015-Jun-26 09:33N 54°25' E 010°12'5 4.9
2015-Jun-26 08:33N 54°20' E 010°09'1 0.8
2015-Jun-26 07:33N 54°19' E 010°09'0 0.0
2015-Jun-26 06:33N 54°19' E 010°09'0 0.0
2015-Jun-26 05:33N 54°19' E 010°09'0 0.0
2015-Jun-26 04:33N 54°19' E 010°09'0 0.0
2015-Jun-26 03:33N 54°19' E 010°09'0 0.0
2015-Jun-26 02:33N 54°19' E 010°09'0 0.0
2015-Jun-26 01:33N 54°19' E 010°09'0 0.0
2015-Jun-26 00:33N 54°19' E 010°09'0 0.0
2015-Jun-25 23:33N 54°19' E 010°09'0 0.0
2015-Jun-25 22:33N 54°19' E 010°09'0 0.0
2015-Jun-25 21:33N 54°19' E 010°09'0 0.0
2015-Jun-25 20:33N 54°19' E 010°09'0 0.0
2015-Jun-25 19:33N 54°19' E 010°09'0 0.0
2015-Jun-25 18:33N 54°19' E 010°09'2 1.5
2015-Jun-25 17:33N 54°21' E 010°10'1 0.9
2015-Jun-25 16:34N 54°21' E 010°10'2 1.7
2015-Jun-25 15:31N 54°20' E 010°10'1 0.8
2015-Jun-25 14:31N 54°19' E 010°09'1 1.1
2015-Jun-25 13:33N 54°20' E 010°10'4 3.7
2015-Jun-25 12:34N 54°24' E 010°12'2 1.7
2015-Jun-25 11:33N 54°25' E 010°12'2 1.9
2015-Jun-25 10:33N 54°24' E 010°12'3 2.7
2015-Jun-25 09:34N 54°21' E 010°10'2 1.6
2015-Jun-25 08:32N 54°20' E 010°09'0 0.4
2015-Jun-25 07:33N 54°19' E 010°09'0 0.0
2015-Jun-25 06:33N 54°19' E 010°09'0 0.0
2015-Jun-25 05:33N 54°19' E 010°09'0 0.0
2015-Jun-25 04:33N 54°19' E 010°09'0 0.0
2015-Jun-25 03:33N 54°19' E 010°09'0 0.0
2015-Jun-25 02:33N 54°19' E 010°09'0 0.0
2015-Jun-25 01:33N 54°19' E 010°09'0 0.0
2015-Jun-25 00:33N 54°19' E 010°09'0 0.0
2015-Jun-24 23:33N 54°19' E 010°09'0 0.0
2015-Jun-24 22:33N 54°19' E 010°09'4 4.4
2015-Jun-24 21:33N 54°23' E 010°12'0 0.2
2015-Jun-24 20:33N 54°23' E 010°12'2 2.2
2015-Jun-24 19:33N 54°21' E 010°10'1 1.5
2015-Jun-24 18:33N 54°20' E 010°10'1 0.9
2015-Jun-24 17:31N 54°19' E 010°09'0 0.0
2015-Jun-24 16:31N 54°19' E 010°09'0 0.4
2015-Jun-24 15:33N 54°20' E 010°09'4 4.3
2015-Jun-24 14:33N 54°23' E 010°12'3 2.7
2015-Jun-24 13:33N 54°21' E 010°10'2 1.9
2015-Jun-24 12:33N 54°19' E 010°09'1 1.1
2015-Jun-24 11:33N 54°20' E 010°10'4 3.7
2015-Jun-24 10:33N 54°24' E 010°12'5 4.7
2015-Jun-24 09:32N 54°19' E 010°09'0 0.0
2015-Jun-24 08:32N 54°19' E 010°09'0 0.0
2015-Jun-24 07:31N 54°19' E 010°09'0 0.0
2015-Jun-24 06:31N 54°19' E 010°09'0 0.0
2015-Jun-24 05:31N 54°19' E 010°09'0 0.0
2015-Jun-24 04:31N 54°19' E 010°09'0 0.0
2015-Jun-24 03:31N 54°19' E 010°09'0 0.0
2015-Jun-24 02:31N 54°19' E 010°09'0 0.0
2015-Jun-24 01:28N 54°19' E 010°09'0 0.0
2015-Jun-24 00:31N 54°19' E 010°09'0 0.0
2015-Jun-23 23:31N 54°19' E 010°09'0 0.0
2015-Jun-23 22:31N 54°19' E 010°09'0 0.0
2015-Jun-23 21:31N 54°19' E 010°09'0 0.0
2015-Jun-23 20:31N 54°19' E 010°09'0 0.0
2015-Jun-23 19:31N 54°19' E 010°09'0 0.0
2015-Jun-23 19:06N 54°19' E 010°09'0 0.0
2015-Jun-22 19:33N 54°19' E 010°09'0 0.0
2015-Jun-22 18:33N 54°19' E 010°09'1 1.4
2015-Jun-22 17:33N 54°21' E 010°10'6 5.8
2015-Jun-22 16:33N 54°26' E 010°13'1 0.7
2015-Jun-22 15:33N 54°27' E 010°13'1 1.3
2015-Jun-22 14:32N 54°25' E 010°12'5 5.5
2015-Jun-22 13:33N 54°20' E 010°10'1 1.0
2015-Jun-22 12:34N 54°19' E 010°09'3 3.0
2015-Jun-22 11:34N 54°22' E 010°10'2 1.7
2015-Jun-22 10:34N 54°20' E 010°10'1 1.3
2015-Jun-22 09:31N 54°19' E 010°09'0 0.0
2015-Jun-22 08:31N 54°19' E 010°09'0 0.0
2015-Jun-22 07:31N 54°19' E 010°09'0 0.0
2015-Jun-22 06:31N 54°19' E 010°09'0 0.0
2015-Jun-22 05:31N 54°19' E 010°09'0 0.0
2015-Jun-22 04:31N 54°19' E 010°09'0 0.0
2015-Jun-22 03:31N 54°19' E 010°09'0 0.0
2015-Jun-22 02:31N 54°19' E 010°09'0 0.0
2015-Jun-22 01:31N 54°19' E 010°09'0 0.0
2015-Jun-22 00:31N 54°19' E 010°09'0 0.0
2015-Jun-21 23:31N 54°19' E 010°09'0 0.0
2015-Jun-21 22:31N 54°19' E 010°09'0 0.0
2015-Jun-21 21:31N 54°19' E 010°09'0 0.0
2015-Jun-21 20:31N 54°19' E 010°09'0 0.0
2015-Jun-21 19:31N 54°19' E 010°09'0 0.0
2015-Jun-21 18:31N 54°19' E 010°09'0 0.0
2015-Jun-21 17:31N 54°19' E 010°09'0 0.0
2015-Jun-21 15:31N 54°19' E 010°09'0 0.0
2015-Jun-21 14:31N 54°19' E 010°09'2 2.4
2015-Jun-21 13:33N 54°21' E 010°10'5 5.1
2015-Jun-21 12:33N 54°26' E 010°12'0 0.1
2015-Jun-21 11:33N 54°26' E 010°12'3 2.7
2015-Jun-21 10:33N 54°24' E 010°12'2 1.7
2015-Jun-21 09:33N 54°22' E 010°11'2 2.3
2015-Jun-21 08:33N 54°20' E 010°10'1 1.0
2015-Jun-21 07:33N 54°19' E 010°09'0 0.0
2015-Jun-21 06:33N 54°19' E 010°09'0 0.0
2015-Jun-21 05:33N 54°19' E 010°09'0 0.0
2015-Jun-21 04:33N 54°19' E 010°09'0 0.0
2015-Jun-21 03:33N 54°19' E 010°09'0 0.0
2015-Jun-21 02:33N 54°19' E 010°09'0 0.0
2015-Jun-21 01:33N 54°19' E 010°09'0 0.0
2015-Jun-21 00:30N 54°19' E 010°09'0 0.0
2015-Jun-20 23:33N 54°19' E 010°09'0 0.0
2015-Jun-20 22:33N 54°19' E 010°09'0 0.0
2015-Jun-20 21:33N 54°19' E 010°09'0 0.0
2015-Jun-20 20:33N 54°19' E 010°09'0 0.0
2015-Jun-20 19:33N 54°19' E 010°09'0 0.0
2015-Jun-20 18:33N 54°19' E 010°09'0 0.0
2015-Jun-20 17:33N 54°19' E 010°09'0 0.0
2015-Jun-20 16:33N 54°19' E 010°09'0 0.0
2015-Jun-20 15:33N 54°19' E 010°09'0 0.0
2015-Jun-20 14:33N 54°19' E 010°09'0 0.5
2015-Jun-20 13:34N 54°20' E 010°09'1 1.2
2015-Jun-20 12:34N 54°21' E 010°09'4 3.8
2015-Jun-20 11:34N 54°24' E 010°12'0 0.3
2015-Jun-20 10:33N 54°24' E 010°12'3 2.9
2015-Jun-20 09:34N 54°22' E 010°11'2 2.2
2015-Jun-20 08:34N 54°20' E 010°09'1 0.5
2015-Jun-20 07:33N 54°19' E 010°09'0 0.0
2015-Jun-20 06:33N 54°19' E 010°09'0 0.0
2015-Jun-20 05:33N 54°19' E 010°09'0 0.0
2015-Jun-20 04:33N 54°19' E 010°09'0 0.0
2015-Jun-20 03:33N 54°19' E 010°09'0 0.0
2015-Jun-20 02:33N 54°19' E 010°09'0 0.0
2015-Jun-20 01:33N 54°19' E 010°09'0 0.0
2015-Jun-20 00:33N 54°19' E 010°09'0 0.0
2015-Jun-19 23:33N 54°19' E 010°09'0 0.0
2015-Jun-19 22:30N 54°19' E 010°09'0 0.0
2015-Jun-19 21:33N 54°19' E 010°09'0 0.0
2015-Jun-19 20:33N 54°19' E 010°09'0 0.0
2015-Jun-19 19:33N 54°19' E 010°09'  
Track history (hours):
 
Tides and Currents Weather Stations Pressure Air Temp Water Temp Dewpoint Dewpoint Depression Visibility Wind Speed Wind Dir Waves Ship Positions

Ide Min (Netherlands)

Ship's website: http://www.idemin.nl/english/english.html

Last reported at 2015-Jun-29 19:17 UTC. Time now 2015-Jun-29 23:14 UTC.
Position N 54°51' E 010°31'.

Length 40 m; draft 2.4 m.

MMSI: 244537000.

Date/timePositionNaut miles runAvg speedWind from/ knotsBaromVisibWave heightAir tempDewpointWater temp
2015-Jun-29 19:17N 54°51' E 010°31'0 0.0
2015-Jun-29 18:21N 54°51' E 010°31'1 0.3
2015-Jun-29 16:32N 54°51' E 010°32'5 4.1
2015-Jun-29 15:20N 54°47' E 010°28'5 6.8
2015-Jun-29 14:33N 54°42' E 010°22'3 3.3
2015-Jun-29 13:33N 54°40' E 010°19'1 0.9
2015-Jun-29 12:33N 54°39' E 010°18'2 2.5
2015-Jun-29 11:33N 54°37' E 010°16'3 3.0
2015-Jun-29 10:33N 54°34' E 010°14'4 4.4
2015-Jun-29 09:33N 54°30' E 010°13'5 4.7
2015-Jun-29 08:33N 54°25' E 010°12'3 3.0
2015-Jun-29 07:33N 54°22' E 010°11'2 2.2
2015-Jun-29 06:33N 54°20' E 010°10'1 0.9
2015-Jun-29 05:33N 54°19' E 010°09'0 0.0
2015-Jun-29 04:33N 54°19' E 010°09'0 0.0
2015-Jun-29 03:33N 54°19' E 010°09'0 0.0
2015-Jun-29 02:33N 54°19' E 010°09'0 0.0
2015-Jun-29 01:33N 54°19' E 010°09'0 0.0
2015-Jun-29 00:30N 54°19' E 010°09'0 0.0
2015-Jun-28 23:33N 54°19' E 010°09'0 0.0
2015-Jun-28 22:33N 54°19' E 010°09'1 0.6
2015-Jun-28 21:33N 54°20' E 010°09'1 1.1
2015-Jun-28 20:33N 54°21' E 010°10'2 1.7
2015-Jun-28 19:33N 54°22' E 010°11'1 0.2
2015-Jun-28 14:33N 54°23' E 010°11'2 2.2
2015-Jun-28 13:33N 54°21' E 010°10'2 2.0
2015-Jun-28 12:33N 54°19' E 010°09'2 2.1
2015-Jun-28 11:33N 54°21' E 010°10'2 1.9
2015-Jun-28 10:33N 54°23' E 010°11'4 3.8
2015-Jun-28 09:31N 54°19' E 010°09'0 0.0
2015-Jun-28 08:28N 54°19' E 010°09'0 0.0
2015-Jun-28 07:31N 54°19' E 010°09'0 0.0
2015-Jun-28 06:31N 54°19' E 010°09'0 0.0
2015-Jun-28 05:31N 54°19' E 010°09'0 0.0
2015-Jun-28 04:31N 54°19' E 010°09'0 0.0
2015-Jun-28 03:31N 54°19' E 010°09'0 0.0
2015-Jun-28 02:31N 54°19' E 010°09'0 0.0
2015-Jun-28 01:31N 54°19' E 010°09'0 0.0
2015-Jun-28 00:31N 54°19' E 010°09'0 0.0
2015-Jun-27 23:31N 54°19' E 010°09'0 0.0
2015-Jun-27 22:31N 54°19' E 010°09'0 0.0
2015-Jun-27 21:31N 54°19' E 010°09'0 0.0
2015-Jun-27 20:31N 54°19' E 010°09'0 0.0
2015-Jun-27 19:34N 54°19' E 010°09'0 0.5
2015-Jun-27 18:34N 54°20' E 010°09'3 3.0
2015-Jun-27 17:34N 54°22' E 010°10'3 3.3
2015-Jun-27 16:34N 54°19' E 010°09'0 0.1
2015-Jun-27 15:34N 54°19' E 010°09'0 0.0
2015-Jun-27 14:34N 54°19' E 010°09'1 0.5
2015-Jun-27 13:33N 54°20' E 010°09'5 5.1
2015-Jun-27 12:33N 54°24' E 010°12'3 2.6
2015-Jun-27 11:33N 54°27' E 010°14'3 2.6
2015-Jun-27 10:33N 54°24' E 010°13'4 3.5
2015-Jun-27 09:33N 54°21' E 010°10'1 0.9
2015-Jun-27 08:33N 54°20' E 010°10'1 1.4
2015-Jun-27 07:33N 54°19' E 010°09'0 0.0
2015-Jun-27 06:33N 54°19' E 010°09'0 0.0
2015-Jun-27 05:33N 54°19' E 010°09'0 0.0
2015-Jun-27 04:33N 54°19' E 010°09'0 0.0
2015-Jun-27 03:33N 54°19' E 010°09'0 0.0
2015-Jun-27 02:33N 54°19' E 010°09'0 0.0
2015-Jun-27 01:33N 54°19' E 010°09'0 0.0
2015-Jun-27 00:33N 54°19' E 010°09'0 0.0
2015-Jun-26 23:33N 54°19' E 010°09'0 0.0
2015-Jun-26 22:33N 54°19' E 010°09'0 0.0
2015-Jun-26 21:30N 54°19' E 010°09'0 0.0
2015-Jun-26 20:33N 54°19' E 010°09'0 0.0
2015-Jun-26 19:33N 54°19' E 010°09'1 1.4
2015-Jun-26 18:34N 54°21' E 010°10'1 1.0
2015-Jun-26 17:28N 54°22' E 010°09'2 2.2
2015-Jun-26 16:25N 54°19' E 010°09'0 0.0
2015-Jun-26 15:31N 54°19' E 010°09'0 0.0
2015-Jun-26 14:33N 54°19' E 010°09'1 1.3
2015-Jun-26 13:33N 54°20' E 010°10'1 0.9
2015-Jun-26 12:33N 54°21' E 010°10'2 2.3
2015-Jun-26 11:33N 54°23' E 010°12'3 2.7
2015-Jun-26 10:33N 54°26' E 010°12'2 1.6
2015-Jun-26 09:33N 54°25' E 010°12'5 4.9
2015-Jun-26 08:33N 54°20' E 010°09'1 0.8
2015-Jun-26 07:33N 54°19' E 010°09'0 0.0
2015-Jun-26 06:33N 54°19' E 010°09'0 0.0
2015-Jun-26 05:33N 54°19' E 010°09'0 0.0
2015-Jun-26 04:33N 54°19' E 010°09'0 0.0
2015-Jun-26 03:33N 54°19' E 010°09'0 0.0
2015-Jun-26 02:33N 54°19' E 010°09'0 0.0
2015-Jun-26 01:33N 54°19' E 010°09'0 0.0
2015-Jun-26 00:33N 54°19' E 010°09'0 0.0
2015-Jun-25 23:33N 54°19' E 010°09'0 0.0
2015-Jun-25 22:33N 54°19' E 010°09'0 0.0
2015-Jun-25 21:33N 54°19' E 010°09'0 0.0
2015-Jun-25 20:33N 54°19' E 010°09'0 0.0
2015-Jun-25 19:33N 54°19' E 010°09'0 0.0
2015-Jun-25 18:33N 54°19' E 010°09'2 1.5
2015-Jun-25 17:33N 54°21' E 010°10'1 0.9
2015-Jun-25 16:34N 54°21' E 010°10'2 1.7
2015-Jun-25 15:31N 54°20' E 010°10'1 0.8
2015-Jun-25 14:31N 54°19' E 010°09'1 1.1
2015-Jun-25 13:33N 54°20' E 010°10'4 3.7
2015-Jun-25 12:34N 54°24' E 010°12'2 1.7
2015-Jun-25 11:33N 54°25' E 010°12'2 1.9
2015-Jun-25 10:33N 54°24' E 010°12'3 2.7
2015-Jun-25 09:34N 54°21' E 010°10'2 1.6
2015-Jun-25 08:32N 54°20' E 010°09'0 0.4
2015-Jun-25 07:33N 54°19' E 010°09'0 0.0
2015-Jun-25 06:33N 54°19' E 010°09'0 0.0
2015-Jun-25 05:33N 54°19' E 010°09'0 0.0
2015-Jun-25 04:33N 54°19' E 010°09'0 0.0
2015-Jun-25 03:33N 54°19' E 010°09'0 0.0
2015-Jun-25 02:33N 54°19' E 010°09'0 0.0
2015-Jun-25 01:33N 54°19' E 010°09'0 0.0
2015-Jun-25 00:33N 54°19' E 010°09'0 0.0
2015-Jun-24 23:33N 54°19' E 010°09'0 0.0
2015-Jun-24 22:33N 54°19' E 010°09'4 4.4
2015-Jun-24 21:33N 54°23' E 010°12'0 0.2
2015-Jun-24 20:33N 54°23' E 010°12'2 2.2
2015-Jun-24 19:33N 54°21' E 010°10'1 1.5
2015-Jun-24 18:33N 54°20' E 010°10'1 0.9
2015-Jun-24 17:31N 54°19' E 010°09'0 0.0
2015-Jun-24 16:31N 54°19' E 010°09'0 0.4
2015-Jun-24 15:33N 54°20' E 010°09'4 4.3
2015-Jun-24 14:33N 54°23' E 010°12'3 2.7
2015-Jun-24 13:33N 54°21' E 010°10'2 1.9
2015-Jun-24 12:33N 54°19' E 010°09'1 1.1
2015-Jun-24 11:33N 54°20' E 010°10'4 3.7
2015-Jun-24 10:33N 54°24' E 010°12'5 4.7
2015-Jun-24 09:32N 54°19' E 010°09'0 0.0
2015-Jun-24 08:32N 54°19' E 010°09'0 0.0
2015-Jun-24 07:31N 54°19' E 010°09'0 0.0
2015-Jun-24 06:31N 54°19' E 010°09'0 0.0
2015-Jun-24 05:31N 54°19' E 010°09'0 0.0
2015-Jun-24 04:31N 54°19' E 010°09'0 0.0
2015-Jun-24 03:31N 54°19' E 010°09'0 0.0
2015-Jun-24 02:31N 54°19' E 010°09'0 0.0
2015-Jun-24 01:28N 54°19' E 010°09'0 0.0
2015-Jun-24 00:31N 54°19' E 010°09'0 0.0
2015-Jun-23 23:31N 54°19' E 010°09'0 0.0
2015-Jun-23 22:31N 54°19' E 010°09'0 0.0
2015-Jun-23 21:31N 54°19' E 010°09'0 0.0
2015-Jun-23 20:31N 54°19' E 010°09'0 0.0
2015-Jun-23 19:31N 54°19' E 010°09'0 0.0
2015-Jun-23 19:06N 54°19' E 010°09'0 0.0
2015-Jun-22 19:33N 54°19' E 010°09'0 0.0
2015-Jun-22 18:33N 54°19' E 010°09'1 1.4
2015-Jun-22 17:33N 54°21' E 010°10'6 5.8
2015-Jun-22 16:33N 54°26' E 010°13'1 0.7
2015-Jun-22 15:33N 54°27' E 010°13'1 1.3
2015-Jun-22 14:32N 54°25' E 010°12'5 5.5
2015-Jun-22 13:33N 54°20' E 010°10'1 1.0
2015-Jun-22 12:34N 54°19' E 010°09'3 3.0
2015-Jun-22 11:34N 54°22' E 010°10'2 1.7
2015-Jun-22 10:34N 54°20' E 010°10'1 1.3
2015-Jun-22 09:31N 54°19' E 010°09'0 0.0
2015-Jun-22 08:31N 54°19' E 010°09'0 0.0
2015-Jun-22 07:31N 54°19' E 010°09'0 0.0
2015-Jun-22 06:31N 54°19' E 010°09'0 0.0
2015-Jun-22 05:31N 54°19' E 010°09'0 0.0
2015-Jun-22 04:31N 54°19' E 010°09'0 0.0
2015-Jun-22 03:31N 54°19' E 010°09'0 0.0
2015-Jun-22 02:31N 54°19' E 010°09'0 0.0
2015-Jun-22 01:31N 54°19' E 010°09'0 0.0
2015-Jun-22 00:31N 54°19' E 010°09'0 0.0
2015-Jun-21 23:31N 54°19' E 010°09'0 0.0
2015-Jun-21 22:31N 54°19' E 010°09'0 0.0
2015-Jun-21 21:31N 54°19' E 010°09'0 0.0
2015-Jun-21 20:31N 54°19' E 010°09'0 0.0
2015-Jun-21 19:31N 54°19' E 010°09'0 0.0
2015-Jun-21 18:31N 54°19' E 010°09'0 0.0
2015-Jun-21 17:31N 54°19' E 010°09'0 0.0
2015-Jun-21 15:31N 54°19' E 010°09'0 0.0
2015-Jun-21 14:31N 54°19' E 010°09'2 2.4
2015-Jun-21 13:33N 54°21' E 010°10'5 5.1
2015-Jun-21 12:33N 54°26' E 010°12'0 0.1
2015-Jun-21 11:33N 54°26' E 010°12'3 2.7
2015-Jun-21 10:33N 54°24' E 010°12'2 1.7
2015-Jun-21 09:33N 54°22' E 010°11'2 2.3
2015-Jun-21 08:33N 54°20' E 010°10'1 1.0
2015-Jun-21 07:33N 54°19' E 010°09'0 0.0
2015-Jun-21 06:33N 54°19' E 010°09'0 0.0
2015-Jun-21 05:33N 54°19' E 010°09'0 0.0
2015-Jun-21 04:33N 54°19' E 010°09'0 0.0
2015-Jun-21 03:33N 54°19' E 010°09'0 0.0
2015-Jun-21 02:33N 54°19' E 010°09'0 0.0
2015-Jun-21 01:33N 54°19' E 010°09'0 0.0
2015-Jun-21 00:30N 54°19' E 010°09'0 0.0
2015-Jun-20 23:33N 54°19' E 010°09'0 0.0
2015-Jun-20 22:33N 54°19' E 010°09'0 0.0
2015-Jun-20 21:33N 54°19' E 010°09'0 0.0
2015-Jun-20 20:33N 54°19' E 010°09'0 0.0
2015-Jun-20 19:33N 54°19' E 010°09'0 0.0
2015-Jun-20 18:33N 54°19' E 010°09'0 0.0
2015-Jun-20 17:33N 54°19' E 010°09'0 0.0
2015-Jun-20 16:33N 54°19' E 010°09'0 0.0
2015-Jun-20 15:33N 54°19' E 010°09'0 0.0
2015-Jun-20 14:33N 54°19' E 010°09'0 0.5
2015-Jun-20 13:34N 54°20' E 010°09'1 1.2
2015-Jun-20 12:34N 54°21' E 010°09'4 3.8
2015-Jun-20 11:34N 54°24' E 010°12'0 0.3
2015-Jun-20 10:33N 54°24' E 010°12'3 2.9
2015-Jun-20 09:34N 54°22' E 010°11'2 2.2
2015-Jun-20 08:34N 54°20' E 010°09'1 0.5
2015-Jun-20 07:33N 54°19' E 010°09'0 0.0
2015-Jun-20 06:33N 54°19' E 010°09'0 0.0
2015-Jun-20 05:33N 54°19' E 010°09'0 0.0
2015-Jun-20 04:33N 54°19' E 010°09'0 0.0
2015-Jun-20 03:33N 54°19' E 010°09'0 0.0
2015-Jun-20 02:33N 54°19' E 010°09'0 0.0
2015-Jun-20 01:33N 54°19' E 010°09'0 0.0
2015-Jun-20 00:33N 54°19' E 010°09'0 0.0
2015-Jun-19 23:33N 54°19' E 010°09'0 0.0
2015-Jun-19 22:30N 54°19' E 010°09'0 0.0
2015-Jun-19 21:33N 54°19' E 010°09'0 0.0
2015-Jun-19 20:33N 54°19' E 010°09'0 0.0
2015-Jun-19 19:33N 54°19' E 010°09'  

Dump ship's entire track history